Time;durP1;ratioP1;P1;durP2;ratioP2;P2;SDS_P1;SDS_P2;PMS_P1;PMS_P2;Temp;Humidity;BMP_temperature;BMP_pressure;BME280_temperature;BME280_humidity;BME280_pressure;Samples;Min_cycle;Max_cycle;Signal;HPM_P1;HPM_P2
2021/03/26 00:00:54;;;;;;;69.73;46.07;;;10.90;99.90;;;;;;5051634;28;20856;-46
2021/03/26 00:03:23;;;;;;;71.70;47.60;;;10.80;99.90;;;;;;5051242;28;20466;-46
2021/03/26 00:05:53;;;;;;;76.03;47.50;;;10.50;99.90;;;;;;5051589;28;20478;-46
2021/03/26 00:08:20;;;;;;;74.20;49.30;;;10.50;99.90;;;;;;5051813;28;20915;-46
2021/03/26 00:10:47;;;;;;;76.97;49.20;;;10.40;99.90;;;;;;5051347;28;20470;-47
2021/03/26 00:13:14;;;;;;;81.97;48.33;;;10.60;99.90;;;;;;5051229;28;20522;-44
2021/03/26 00:15:40;;;;;;;70.90;46.57;;;10.40;99.90;;;;;;5055078;28;20915;-44
2021/03/26 00:18:07;;;;;;;73.97;48.23;;;10.20;99.90;;;;;;5055480;28;20462;-44
2021/03/26 00:20:33;;;;;;;75.50;46.27;;;10.50;99.90;;;;;;5055671;28;20446;-44
2021/03/26 00:23:00;;;;;;;75.50;46.70;;;10.40;99.90;;;;;;5054968;28;20438;-46
2021/03/26 00:25:26;;;;;;;70.73;48.23;;;10.40;99.90;;;;;;5055235;28;20470;-45
2021/03/26 00:27:54;;;;;;;72.63;47.47;;;10.30;99.90;;;;;;5055278;28;20422;-46
2021/03/26 00:30:22;;;;;;;77.17;46.83;;;10.40;99.90;;;;;;5055003;28;20466;-45
2021/03/26 00:32:49;;;;;;;80.10;46.80;;;10.20;99.90;;;;;;5055149;28;20832;-46
2021/03/26 00:35:18;;;;;;;67.90;45.33;;;10.00;99.90;;;;;;5055021;28;20477;-45
2021/03/26 00:37:44;;;;;;;70.70;45.87;;;10.20;99.90;;;;;;5054778;28;20443;-44
2021/03/26 00:40:13;;;;;;;71.87;44.73;;;10.30;99.90;;;;;;5054906;28;20458;-45
2021/03/26 00:42:40;;;;;;;76.63;48.43;;;10.20;99.90;;;;;;5054471;28;20426;-46
2021/03/26 00:45:11;;;;;;;72.90;48.13;;;10.60;99.90;;;;;;5054801;28;20476;-46
2021/03/26 00:47:38;;;;;;;69.97;45.60;;;10.30;99.90;;;;;;5054750;28;20438;-46
2021/03/26 00:50:06;;;;;;;69.33;45.63;;;10.00;99.90;;;;;;5036846;28;20474;-46
2021/03/26 00:52:32;;;;;;;72.53;47.20;;;10.30;99.90;;;;;;5054409;28;20434;-45
2021/03/26 00:54:59;;;;;;;70.80;45.97;;;10.20;99.90;;;;;;5054632;28;20466;-45
2021/03/26 00:57:25;;;;;;;79.20;47.53;;;10.10;99.90;;;;;;5036851;28;20450;-46
2021/03/26 00:59:51;;;;;;;80.77;49.00;;;10.00;99.90;;;;;;5054792;28;20445;-44
2021/03/26 01:02:18;;;;;;;77.53;45.77;;;10.10;99.90;;;;;;5054374;28;20934;-46
2021/03/26 01:04:44;;;;;;;80.07;47.77;;;9.90;99.90;;;;;;5054668;28;20880;-45
2021/03/26 01:07:11;;;;;;;76.63;48.10;;;10.00;99.90;;;;;;5036545;28;20530;-45
2021/03/26 01:09:37;;;;;;;72.53;47.53;;;9.80;99.90;;;;;;5036529;28;20489;-45
2021/03/26 01:12:05;;;;;;;67.17;45.50;;;10.00;99.90;;;;;;5036430;28;20473;-44
2021/03/26 01:14:32;;;;;;;75.40;46.63;;;9.80;99.90;;;;;;5036175;28;20487;-46
2021/03/26 01:16:59;;;;;;;81.03;47.17;;;9.90;99.90;;;;;;5036611;28;21016;-46
2021/03/26 01:19:27;;;;;;;81.30;46.93;;;9.90;99.90;;;;;;5054387;28;20894;-47
2021/03/26 01:21:53;;;;;;;80.57;47.90;;;9.90;99.90;;;;;;5054294;28;20431;-46
2021/03/26 01:24:20;;;;;;;67.83;46.60;;;10.00;99.90;;;;;;5054075;28;20441;-46
2021/03/26 01:26:50;;;;;;;75.83;47.90;;;9.20;99.90;;;;;;5053376;28;20539;-46
2021/03/26 01:29:21;;;;;;;75.67;46.60;;;10.10;99.90;;;;;;5054215;28;20938;-46
2021/03/26 01:32:04;;;;;;;70.53;45.23;;;9.90;99.90;;;;;;5036187;28;20515;-44
2021/03/26 01:34:33;;;;;;;80.70;48.37;;;9.90;99.90;;;;;;5035828;28;20818;-46
2021/03/26 01:37:03;;;;;;;76.10;45.97;;;9.90;99.90;;;;;;5053972;28;20446;-46
2021/03/26 01:39:36;;;;;;;77.93;48.50;;;9.90;99.90;;;;;;5035921;28;21000;-46
2021/03/26 01:42:20;;;;;;;74.07;47.63;;;10.00;99.90;;;;;;5036089;28;20453;-45
2021/03/26 01:44:47;;;;;;;65.40;46.33;;;9.90;99.90;;;;;;5036009;28;20817;-46
2021/03/26 01:47:20;;;;;;;68.13;47.03;;;10.00;99.90;;;;;;5035793;28;20450;-46
2021/03/26 01:49:47;;;;;;;75.67;48.07;;;10.00;99.90;;;;;;5053639;28;20495;-47
2021/03/26 01:52:13;;;;;;;67.50;45.93;;;10.10;99.90;;;;;;5035913;28;20450;-46
2021/03/26 01:54:39;;;;;;;66.03;45.70;;;10.10;99.90;;;;;;5053578;28;20499;-44
2021/03/26 01:57:12;;;;;;;67.27;45.40;;;10.10;99.90;;;;;;5035802;28;20443;-45
2021/03/26 01:59:44;;;;;;;78.37;47.93;;;9.70;99.90;;;;;;5035568;28;20529;-44
2021/03/26 02:02:17;;;;;;;74.97;45.73;;;10.00;99.90;;;;;;5035618;28;21001;-46
2021/03/26 02:05:10;;;;;;;74.53;47.30;;;10.00;99.90;;;;;;5053187;28;21021;-45
2021/03/26 02:07:52;;;;;;;70.07;44.00;;;10.20;99.90;;;;;;5035453;28;20929;-45
2021/03/26 02:10:25;;;;;;;69.63;46.23;;;10.40;99.90;;;;;;5035864;28;20569;-44
2021/03/26 02:12:59;;;;;;;80.37;47.80;;;10.20;99.90;;;;;;5035752;28;20470;-45
2021/03/26 02:15:30;;;;;;;66.17;44.97;;;10.50;99.90;;;;;;5054258;28;20439;-43
2021/03/26 02:17:57;;;;;;;65.70;46.30;;;10.10;99.90;;;;;;5036074;28;20482;-44
2021/03/26 02:20:44;;;;;;;71.50;45.37;;;10.20;99.90;;;;;;5054185;28;20458;-44
2021/03/26 02:23:20;;;;;;;65.63;44.00;;;10.20;99.90;;;;;;5036139;28;20453;-44
2021/03/26 02:26:22;;;;;;;70.97;44.13;;;10.10;99.90;;;;;;5041711;28;20478;-44
2021/03/26 02:28:50;;;;;;;78.47;47.40;;;10.40;99.90;;;;;;5036198;28;20526;-44
2021/03/26 02:31:44;;;;;;;81.67;48.50;;;10.10;99.90;;;;;;5035840;28;20458;-44
2021/03/26 02:34:11;;;;;;;69.87;44.13;;;10.20;99.90;;;;;;5035461;28;20970;-45
2021/03/26 02:36:43;;;;;;;72.40;46.40;;;10.20;99.90;;;;;;5035675;28;20450;-45
2021/03/26 02:39:25;;;;;;;61.77;41.40;;;10.20;99.90;;;;;;5034409;28;20829;-45
2021/03/26 02:42:00;;;;;;;71.77;45.50;;;10.00;99.90;;;;;;5035003;28;20474;-45
2021/03/26 02:44:55;;;;;;;66.40;45.50;;;9.80;99.90;;;;;;5052269;28;20500;-45
2021/03/26 02:47:46;;;;;;;65.30;46.90;;;10.00;99.90;;;;;;5022136;28;20476;-45
2021/03/26 02:50:38;;;;;;;65.80;44.30;;;10.20;99.90;;;;;;5036111;28;20492;-46
2021/03/26 02:53:10;;;;;;;68.47;44.60;;;9.30;99.90;;;;;;5052195;28;20409;-46
2021/03/26 02:55:43;;;;;;;71.57;45.63;;;9.70;99.90;;;;;;5034760;28;20962;-46
2021/03/26 02:58:15;;;;;;;71.30;45.53;;;9.70;99.90;;;;;;5034590;28;20463;-46
2021/03/26 03:00:48;;;;;;;67.03;44.93;;;9.60;99.90;;;;;;5034340;28;21005;-46
2021/03/26 03:03:20;;;;;;;76.97;47.20;;;9.80;99.90;;;;;;5052226;28;20781;-46
2021/03/26 03:05:52;;;;;;;78.87;47.60;;;9.50;99.90;;;;;;5051896;28;20531;-46
2021/03/26 03:08:34;;;;;;;75.30;46.03;;;9.70;99.90;;;;;;5033035;28;20505;-46
2021/03/26 03:11:15;;;;;;;70.83;47.87;;;9.80;99.90;;;;;;5034863;23;21057;-48
2021/03/26 03:14:03;;;;;;;72.30;43.37;;;9.60;99.90;;;;;;5013484;28;20479;-47
2021/03/26 03:16:37;;;;;;;67.33;46.27;;;9.60;99.90;;;;;;5013603;28;20439;-48
2021/03/26 03:19:10;;;;;;;69.10;45.97;;;9.50;99.90;;;;;;5031431;28;20456;-47
2021/03/26 03:21:43;;;;;;;74.87;45.80;;;9.70;99.90;;;;;;5013714;28;20471;-48
2021/03/26 03:24:13;;;;;;;75.20;49.23;;;9.90;99.90;;;;;;5013341;28;20422;-47
2021/03/26 03:26:52;;;;;;;79.67;47.97;;;9.80;99.90;;;;;;5013637;28;20490;-48
2021/03/26 03:29:31;;;;;;;73.27;48.27;;;9.30;99.90;;;;;;5014063;28;20887;-48
2021/03/26 03:32:20;;;;;;;68.77;44.07;;;9.50;99.90;;;;;;5013320;28;20952;-47
2021/03/26 03:34:59;;;;;;;70.50;45.43;;;10.00;99.90;;;;;;5013577;28;20948;-48
2021/03/26 03:37:33;;;;;;;67.30;44.90;;;9.90;99.90;;;;;;5031787;28;20410;-48
2021/03/26 03:40:05;;;;;;;64.00;41.80;;;10.10;99.90;;;;;;5014007;28;20981;-47
2021/03/26 03:42:41;;;;;;;73.60;45.10;;;10.00;99.90;;;;;;5031717;28;20445;-47
2021/03/26 03:45:13;;;;;;;67.00;43.20;;;9.70;99.90;;;;;;5013699;28;20608;-48
2021/03/26 03:47:48;;;;;;;70.20;46.40;;;9.90;99.90;;;;;;5013976;28;20463;-47
2021/03/26 03:50:23;;;;;;;66.43;42.90;;;10.20;99.90;;;;;;5013064;28;20466;-47
2021/03/26 03:52:56;;;;;;;68.00;44.63;;;10.10;99.90;;;;;;5012959;28;20470;-48
2021/03/26 03:55:30;;;;;;;68.87;43.93;;;10.30;99.90;;;;;;5013336;28;20450;-47
2021/03/26 03:58:04;;;;;;;68.63;45.90;;;9.40;99.90;;;;;;5013211;28;20478;-47
2021/03/26 04:00:34;;;;;;;70.27;47.03;;;10.00;99.90;;;;;;5013333;28;20507;-48
2021/03/26 04:03:12;;;;;;;65.67;45.50;;;9.90;99.90;;;;;;5013067;28;20534;-48
2021/03/26 04:05:43;;;;;;;67.63;47.23;;;10.50;99.90;;;;;;5030716;28;20870;-49
2021/03/26 04:08:19;;;;;;;66.37;44.90;;;10.30;99.90;;;;;;5013222;28;20478;-48
2021/03/26 04:10:50;;;;;;;69.43;45.73;;;10.00;99.90;;;;;;5013354;28;21008;-48
2021/03/26 04:13:22;;;;;;;66.70;43.00;;;9.40;99.90;;;;;;5012822;28;20443;-48
2021/03/26 04:15:54;;;;;;;72.33;47.00;;;10.20;99.90;;;;;;5031387;28;20544;-48
2021/03/26 04:18:32;;;;;;;76.13;45.40;;;10.40;99.90;;;;;;5013046;28;20450;-47
2021/03/26 04:21:24;;;;;;;73.00;44.07;;;10.30;99.90;;;;;;5022341;28;20829;-48
2021/03/26 04:24:10;;;;;;;67.97;46.00;;;10.10;99.90;;;;;;5013734;28;21013;-47
2021/03/26 04:27:05;;;;;;;80.80;48.37;;;10.30;99.90;;;;;;5031180;28;20474;-47
2021/03/26 04:29:46;;;;;;;71.70;46.57;;;10.20;99.90;;;;;;5030770;28;20436;-46
2021/03/26 04:32:15;;;;;;;68.47;43.07;;;9.60;99.90;;;;;;5030331;28;20993;-47
2021/03/26 04:34:44;;;;;;;67.00;45.40;;;10.00;99.90;;;;;;5012411;28;20452;-47
2021/03/26 04:37:17;;;;;;;70.83;46.00;;;9.50;99.90;;;;;;5012687;28;20444;-47
2021/03/26 04:39:53;;;;;;;65.80;44.37;;;10.50;99.90;;;;;;5012507;28;20478;-47
2021/03/26 04:42:27;;;;;;;69.00;44.83;;;10.00;99.90;;;;;;5012233;28;20462;-47
2021/03/26 04:45:04;;;;;;;73.40;45.07;;;9.80;99.90;;;;;;5012516;28;20455;-47
2021/03/26 04:47:48;;;;;;;73.70;45.57;;;9.50;99.90;;;;;;5012665;28;20458;-48
2021/03/26 04:50:37;;;;;;;62.47;42.37;;;10.00;99.90;;;;;;5029530;28;20467;-49
2021/03/26 04:53:12;;;;;;;59.10;44.23;;;10.00;99.90;;;;;;5012103;28;20539;-48
2021/03/26 04:55:43;;;;;;;74.50;48.20;;;9.60;99.90;;;;;;5012643;28;20818;-48
2021/03/26 04:58:51;;;;;;;70.77;46.40;;;10.10;99.90;;;;;;4969490;28;20446;-47
2021/03/26 05:01:46;;;;;;;74.20;44.70;;;10.00;99.90;;;;;;5026961;28;20510;-48
2021/03/26 05:04:19;;;;;;;69.00;43.70;;;10.00;99.90;;;;;;5015784;28;20451;-47
2021/03/26 05:06:50;;;;;;;72.73;46.17;;;9.80;99.90;;;;;;5033560;28;20471;-48
2021/03/26 05:09:21;;;;;;;73.73;47.73;;;9.60;99.90;;;;;;5016053;28;20450;-48
2021/03/26 05:12:11;;;;;;;81.20;46.83;;;9.80;99.90;;;;;;5016053;28;20561;-49
2021/03/26 05:14:43;;;;;;;60.60;43.77;;;10.10;99.90;;;;;;5015356;28;20451;-48
2021/03/26 05:17:24;;;;;;;75.67;48.17;;;9.90;99.90;;;;;;5015769;28;20447;-49
2021/03/26 05:20:22;;;;;;;80.67;49.53;;;9.90;99.90;;;;;;5033260;28;20446;-49
2021/03/26 05:23:13;;;;;;;73.63;45.80;;;10.00;99.90;;;;;;5033388;28;20658;-48
2021/03/26 05:26:00;;;;;;;86.57;49.63;;;10.00;99.90;;;;;;5033880;28;20513;-50
2021/03/26 05:28:40;;;;;;;81.80;52.67;;;10.10;99.90;;;;;;5015499;28;20791;-50
2021/03/26 05:31:47;;;;;;;97.30;56.67;;;10.20;99.90;;;;;;5015317;28;20995;-49
2021/03/26 05:34:39;;;;;;;105.33;57.63;;;10.20;99.90;;;;;;5032765;28;20427;-48
2021/03/26 05:37:16;;;;;;;92.17;56.30;;;10.30;99.90;;;;;;5015381;28;20443;-49
2021/03/26 05:40:33;;;;;;;91.23;54.57;;;10.40;99.90;;;;;;4999535;28;20984;-49
2021/03/26 05:43:38;;;;;;;71.13;44.40;;;10.40;99.90;;;;;;5032584;28;20447;-48
2021/03/26 05:46:34;;;;;;;87.93;52.97;;;10.40;99.90;;;;;;5015129;28;20571;-50
2021/03/26 05:49:29;;;;;;;78.83;49.70;;;10.00;99.90;;;;;;5028849;28;20447;-48
2021/03/26 05:52:32;;;;;;;79.63;51.33;;;10.90;99.90;;;;;;5015152;28;20468;-50
2021/03/26 05:55:13;;;;;;;82.23;50.97;;;10.40;99.90;;;;;;5002318;28;20455;-49
2021/03/26 05:57:46;;;;;;;73.60;50.87;;;11.10;99.90;;;;;;5015150;28;20489;-50
2021/03/26 06:00:55;;;;;;;87.13;52.10;;;10.80;99.90;;;;;;5014728;28;20479;-49
2021/03/26 06:04:25;;;;;;;74.93;48.20;;;10.90;99.90;;;;;;4952108;29;20427;-49
2021/03/26 06:07:39;;;;;;;83.50;50.03;;;11.00;99.90;;;;;;5032649;28;20478;-49
2021/03/26 06:10:41;;;;;;;81.97;50.80;;;10.80;99.90;;;;;;5031997;28;20485;-49
2021/03/26 06:14:20;;;;;;;82.53;53.70;;;10.90;99.90;;;;;;5034148;28;20955;-48
2021/03/26 06:17:16;;;;;;;92.13;56.30;;;10.60;99.90;;;;;;5032757;28;20424;-49
2021/03/26 06:20:26;;;;;;;93.90;53.97;;;10.70;99.90;;;;;;5032051;28;20467;-49
2021/03/26 06:23:58;;;;;;;90.80;56.07;;;10.50;99.90;;;;;;5031553;28;20445;-48
2021/03/26 06:26:56;;;;;;;78.73;50.43;;;10.40;99.90;;;;;;5013239;28;20506;-49
2021/03/26 06:29:38;;;;;;;81.57;51.63;;;10.60;99.90;;;;;;5014175;28;20443;-50
2021/03/26 06:32:36;;;;;;;84.60;55.23;;;10.60;99.90;;;;;;5013466;28;20460;-50
2021/03/26 06:35:57;;;;;;;88.03;53.03;;;10.90;99.90;;;;;;5013960;28;20467;-49
2021/03/26 06:38:53;;;;;;;83.97;52.80;;;10.70;99.90;;;;;;5032103;28;20449;-49
2021/03/26 06:41:32;;;;;;;101.87;55.33;;;10.70;99.90;;;;;;5031458;28;20447;-49
2021/03/26 06:44:27;;;;;;;85.03;54.60;;;10.40;99.90;;;;;;5031682;28;20423;-49
2021/03/26 06:46:58;;;;;;;82.67;55.20;;;11.10;99.90;;;;;;5014902;28;20541;-47
2021/03/26 06:49:37;;;;;;;81.23;53.90;;;11.00;99.90;;;;;;5032376;28;20725;-48
2021/03/26 06:52:28;;;;;;;82.97;54.53;;;10.90;99.90;;;;;;5014459;28;20455;-47
2021/03/26 06:55:31;;;;;;;85.33;53.47;;;10.90;99.90;;;;;;5032586;28;20432;-47
2021/03/26 06:58:25;;;;;;;81.50;53.10;;;11.00;99.90;;;;;;5031832;28;20800;-47
2021/03/26 07:01:06;;;;;;;80.03;54.00;;;11.10;99.90;;;;;;5031700;28;20458;-48
2021/03/26 07:03:55;;;;;;;80.57;54.00;;;11.00;99.90;;;;;;5031619;28;20446;-48
2021/03/26 07:06:55;;;;;;;81.70;53.10;;;10.90;99.90;;;;;;5031781;28;20511;-47
2021/03/26 07:09:36;;;;;;;82.67;51.50;;;11.10;99.90;;;;;;5031410;28;20936;-48
2021/03/26 07:12:19;;;;;;;79.23;53.17;;;11.00;99.90;;;;;;5031512;28;20787;-48
2021/03/26 07:14:58;;;;;;;79.23;52.83;;;11.30;99.90;;;;;;5031576;28;20436;-48
2021/03/26 07:18:13;;;;;;;84.83;57.93;;;11.80;99.90;;;;;;5031524;28;20451;-47
2021/03/26 07:21:08;;;;;;;87.43;55.40;;;11.60;99.90;;;;;;5031485;28;20447;-48
2021/03/26 07:24:14;;;;;;;82.60;51.20;;;11.60;99.90;;;;;;5030192;28;20892;-48
2021/03/26 07:26:52;;;;;;;84.90;54.00;;;11.70;99.90;;;;;;5032465;28;20499;-47
2021/03/26 07:29:39;;;;;;;81.80;51.33;;;12.00;99.90;;;;;;5031987;28;20454;-47
2021/03/26 07:32:25;;;;;;;78.07;54.53;;;12.40;99.90;;;;;;5031699;28;20437;-49
2021/03/26 07:35:07;;;;;;;75.67;53.67;;;11.90;99.90;;;;;;5031422;28;20512;-48
2021/03/26 07:37:43;;;;;;;81.43;52.90;;;11.60;99.90;;;;;;5013145;28;20464;-47
2021/03/26 07:40:36;;;;;;;80.40;56.57;;;12.10;99.90;;;;;;5030906;28;20860;-48
2021/03/26 07:43:21;;;;;;;73.90;50.73;;;11.70;99.90;;;;;;5030311;28;20527;-48
2021/03/26 07:46:21;;;;;;;74.03;52.03;;;12.20;99.90;;;;;;5030834;28;20477;-49
2021/03/26 07:49:04;;;;;;;76.47;51.30;;;12.30;99.90;;;;;;5026758;28;20980;-49
2021/03/26 07:51:34;;;;;;;73.10;53.70;;;12.50;99.90;;;;;;5031070;28;20772;-47
2021/03/26 07:54:28;;;;;;;73.50;53.00;;;12.40;99.90;;;;;;5030619;28;20603;-48
2021/03/26 07:57:15;;;;;;;73.43;52.10;;;12.60;99.90;;;;;;5017220;28;20537;-49
2021/03/26 08:00:02;;;;;;;84.33;54.00;;;12.50;99.90;;;;;;5031053;28;20441;-49
2021/03/26 08:02:45;;;;;;;71.23;52.87;;;12.60;99.90;;;;;;5030529;28;20430;-48
2021/03/26 08:05:21;;;;;;;75.83;50.97;;;12.70;99.90;;;;;;5031242;28;20480;-49
2021/03/26 08:08:42;;;;;;;87.20;53.90;;;12.40;99.90;;;;;;5030891;28;20435;-49
2021/03/26 08:11:25;;;;;;;77.13;53.00;;;12.70;99.90;;;;;;5027033;28;20490;-48
2021/03/26 08:14:16;;;;;;;74.20;53.20;;;13.00;99.90;;;;;;5029962;28;20815;-48
2021/03/26 08:16:58;;;;;;;80.00;51.57;;;12.90;99.90;;;;;;5030883;28;20746;-48
2021/03/26 08:19:34;;;;;;;74.50;55.27;;;13.20;99.90;;;;;;5030450;28;20429;-49
2021/03/26 08:22:10;;;;;;;77.63;54.40;;;13.00;99.90;;;;;;5030577;28;20924;-48
2021/03/26 08:25:01;;;;;;;70.33;53.00;;;13.50;99.90;;;;;;5030304;28;20435;-49
2021/03/26 08:27:44;;;;;;;71.43;52.00;;;13.60;99.90;;;;;;5030529;28;20527;-49
2021/03/26 08:30:44;;;;;;;77.77;57.43;;;13.60;99.90;;;;;;4996130;28;20474;-49
2021/03/26 08:33:20;;;;;;;77.67;53.60;;;13.60;99.90;;;;;;5015529;28;20462;-49
2021/03/26 08:36:06;;;;;;;79.87;55.90;;;13.80;99.90;;;;;;5032169;28;20438;-49
2021/03/26 08:38:56;;;;;;;77.13;52.90;;;13.70;99.90;;;;;;5033902;28;20431;-49
2021/03/26 08:41:27;;;;;;;86.77;54.63;;;13.50;99.90;;;;;;5034090;28;20549;-49
2021/03/26 08:43:56;;;;;;;78.67;51.27;;;13.80;99.90;;;;;;5033631;28;20518;-49
2021/03/26 08:46:26;;;;;;;75.03;51.10;;;13.90;99.90;;;;;;5033920;28;20470;-48
2021/03/26 08:49:02;;;;;;;63.93;47.97;;;13.80;99.90;;;;;;5033750;28;20484;-49
2021/03/26 08:52:02;;;;;;;69.20;51.93;;;13.40;99.90;;;;;;5033627;28;20467;-49
2021/03/26 08:54:50;;;;;;;74.63;49.50;;;13.80;99.90;;;;;;5033397;28;20434;-49
2021/03/26 08:57:26;;;;;;;82.13;52.83;;;14.00;99.90;;;;;;5034311;28;20445;-49
2021/03/26 09:00:07;;;;;;;70.67;50.57;;;14.10;99.90;;;;;;5033987;28;20775;-49
2021/03/26 09:02:51;;;;;;;68.77;47.20;;;14.10;99.90;;;;;;5033186;28;20937;-49
2021/03/26 09:05:37;;;;;;;70.10;49.90;;;14.20;99.90;;;;;;5033569;28;20430;-48
2021/03/26 09:08:35;;;;;;;62.97;46.50;;;14.40;99.90;;;;;;5033173;28;20435;-48
2021/03/26 09:11:27;;;;;;;65.17;45.27;;;14.30;99.90;;;;;;5058811;22;20500;-47
2021/03/26 09:14:19;;;;;;;73.80;47.93;;;14.50;99.90;;;;;;5054397;28;20442;-48
2021/03/26 09:16:53;;;;;;;65.47;46.07;;;14.50;99.90;;;;;;5054288;28;20521;-46
2021/03/26 09:19:26;;;;;;;67.53;46.57;;;14.80;99.90;;;;;;5054409;28;20431;-46
2021/03/26 09:21:59;;;;;;;70.20;46.60;;;14.80;99.90;;;;;;5053734;28;20512;-47
2021/03/26 09:24:45;;;;;;;68.33;47.80;;;14.80;99.90;;;;;;5054128;28;20524;-48
2021/03/26 09:27:23;;;;;;;64.10;47.80;;;14.80;99.70;;;;;;5054488;28;20956;-47
2021/03/26 09:30:01;;;;;;;65.17;47.47;;;15.00;99.50;;;;;;5035990;28;20449;-48
2021/03/26 09:32:31;;;;;;;62.80;48.20;;;15.00;98.70;;;;;;5053876;28;20431;-48
2021/03/26 09:35:07;;;;;;;62.03;44.47;;;15.10;98.60;;;;;;5054977;28;20447;-48
2021/03/26 09:37:43;;;;;;;59.17;42.80;;;15.30;98.50;;;;;;5054650;28;20442;-48
2021/03/26 09:40:17;;;;;;;71.33;48.73;;;15.30;98.40;;;;;;5054264;28;20525;-47
2021/03/26 09:42:50;;;;;;;55.97;42.13;;;15.70;98.30;;;;;;5053865;28;20483;-46
2021/03/26 09:45:38;;;;;;;62.23;44.57;;;15.50;97.50;;;;;;5036534;28;20486;-47
2021/03/26 09:48:22;;;;;;;62.20;44.83;;;15.30;97.40;;;;;;5053280;28;20493;-47
2021/03/26 09:50:57;;;;;;;51.10;39.77;;;15.60;97.40;;;;;;5053771;28;20524;-48
2021/03/26 09:53:24;;;;;;;60.07;44.57;;;15.30;97.30;;;;;;5035698;28;20506;-47
2021/03/26 09:55:53;;;;;;;50.97;39.80;;;15.00;96.60;;;;;;5053948;28;20553;-48
2021/03/26 09:58:30;;;;;;;58.77;41.73;;;15.00;96.40;;;;;;5054112;28;20488;-48
2021/03/26 10:01:02;;;;;;;62.93;42.53;;;15.30;96.70;;;;;;5036064;28;20982;-47
2021/03/26 10:03:39;;;;;;;56.67;41.90;;;15.10;96.40;;;;;;5053608;28;20443;-48
2021/03/26 10:06:11;;;;;;;54.23;40.27;;;15.10;96.30;;;;;;5053884;28;20524;-47
2021/03/26 10:11:26;;;;;;;56.63;38.57;;;14.90;96.10;;;;;;5052040;28;20620;-55
2021/03/26 10:13:57;;;;;;;51.60;39.67;;;15.00;96.20;;;;;;5053391;28;20423;-48
2021/03/26 10:16:41;;;;;;;53.10;38.93;;;15.20;95.90;;;;;;5053225;28;20449;-48
2021/03/26 10:19:14;;;;;;;59.47;37.23;;;14.60;95.70;;;;;;5053474;28;20903;-47
2021/03/26 10:21:48;;;;;;;48.63;36.23;;;14.90;95.80;;;;;;5053414;28;20804;-47
2021/03/26 10:24:21;;;;;;;50.77;36.03;;;15.00;95.60;;;;;;5035799;28;20540;-48
2021/03/26 10:26:59;;;;;;;47.47;34.60;;;14.80;95.20;;;;;;5053638;28;20478;-47
2021/03/26 10:29:45;;;;;;;48.30;36.97;;;15.00;95.40;;;;;;5054172;28;20426;-46
2021/03/26 10:32:17;;;;;;;51.77;35.90;;;15.40;95.20;;;;;;5053952;28;20605;-47
2021/03/26 10:34:46;;;;;;;46.27;34.40;;;15.20;95.10;;;;;;5053321;28;20435;-46
2021/03/26 10:37:38;;;;;;;46.60;36.00;;;15.20;94.80;;;;;;5052839;28;20904;-46
2021/03/26 10:40:08;;;;;;;53.37;35.87;;;15.70;94.80;;;;;;5050520;28;20486;-47
2021/03/26 10:42:49;;;;;;;50.47;35.77;;;15.50;94.60;;;;;;5052518;28;20466;-48
2021/03/26 10:45:40;;;;;;;52.13;38.40;;;15.80;94.40;;;;;;5053485;28;20426;-47
2021/03/26 10:48:11;;;;;;;53.90;37.03;;;15.70;94.30;;;;;;5053368;28;20436;-48
2021/03/26 10:51:10;;;;;;;50.67;37.00;;;15.80;94.30;;;;;;5054167;28;20863;-47
2021/03/26 10:53:42;;;;;;;44.33;33.47;;;16.00;94.10;;;;;;5053597;28;21257;-48
2021/03/26 10:56:14;;;;;;;53.97;37.70;;;15.60;93.70;;;;;;5053970;28;20442;-46
2021/03/26 10:58:44;;;;;;;48.23;37.43;;;16.30;93.70;;;;;;5052642;28;20900;-48
2021/03/26 11:01:17;;;;;;;46.90;36.63;;;16.10;93.20;;;;;;5052315;28;20474;-48
2021/03/26 11:03:48;;;;;;;47.30;36.17;;;16.50;93.00;;;;;;5052434;28;20438;-47
2021/03/26 11:06:36;;;;;;;48.90;36.37;;;16.50;93.10;;;;;;5053122;28;20491;-47
2021/03/26 11:09:05;;;;;;;58.23;38.93;;;16.60;92.50;;;;;;5053283;28;20431;-47
2021/03/26 11:11:45;;;;;;;55.53;38.23;;;16.80;92.50;;;;;;5053377;28;20997;-47
2021/03/26 11:14:36;;;;;;;44.33;35.50;;;16.70;91.80;;;;;;5053552;28;20504;-46
2021/03/26 11:17:12;;;;;;;45.57;33.20;;;16.80;91.60;;;;;;5053689;28;20427;-49
2021/03/26 11:19:46;;;;;;;51.00;34.27;;;17.00;91.40;;;;;;5053309;28;20513;-48
2021/03/26 11:22:17;;;;;;;47.80;32.83;;;16.80;91.10;;;;;;5053842;28;20423;-47
2021/03/26 11:25:03;;;;;;;50.70;37.33;;;16.90;90.90;;;;;;5053479;28;20451;-47
2021/03/26 11:27:37;;;;;;;46.43;35.17;;;17.20;90.80;;;;;;5053606;28;20481;-48
2021/03/26 11:30:25;;;;;;;47.33;34.10;;;16.90;90.30;;;;;;5052615;28;20519;-48
2021/03/26 11:32:59;;;;;;;45.30;33.37;;;16.80;90.00;;;;;;5053363;28;20435;-47
2021/03/26 11:35:33;;;;;;;49.23;35.23;;;16.80;90.00;;;;;;5052807;28;20419;-47
2021/03/26 11:38:09;;;;;;;50.43;33.60;;;17.00;89.80;;;;;;5052197;28;20449;-48
2021/03/26 11:40:41;;;;;;;61.07;35.53;;;17.20;89.30;;;;;;5051948;28;20471;-47
2021/03/26 11:43:10;;;;;;;43.30;34.07;;;17.20;88.90;;;;;;5051527;28;20487;-48
2021/03/26 11:45:41;;;;;;;46.63;32.07;;;16.60;87.80;;;;;;5051675;28;20431;-48
2021/03/26 11:48:17;;;;;;;46.70;32.93;;;17.20;88.10;;;;;;5051524;28;20450;-47
2021/03/26 11:50:56;;;;;;;47.43;31.80;;;17.40;87.80;;;;;;5051422;28;20629;-47
2021/03/26 11:53:46;;;;;;;50.50;33.30;;;17.30;87.00;;;;;;5050939;28;20425;-47
2021/03/26 11:56:44;;;;;;;47.60;32.40;;;17.50;86.60;;;;;;5051778;28;20808;-47
2021/03/26 12:00:02;;;;;;;46.90;35.07;;;17.40;86.10;;;;;;5033383;28;20944;-47
2021/03/26 12:02:53;;;;;;;45.43;32.33;;;17.40;85.20;;;;;;5051604;28;20423;-47
2021/03/26 12:05:41;;;;;;;50.33;34.00;;;17.80;84.90;;;;;;5051822;28;20428;-48
2021/03/26 12:08:15;;;;;;;47.07;33.53;;;17.80;84.90;;;;;;5038145;28;20514;-46
2021/03/26 12:10:45;;;;;;;48.73;33.90;;;17.60;84.30;;;;;;5053713;28;20468;-46
2021/03/26 12:13:23;;;;;;;44.50;33.40;;;17.90;84.30;;;;;;5037683;28;20456;-47
2021/03/26 12:15:55;;;;;;;50.40;33.97;;;17.60;83.40;;;;;;5055269;28;20427;-47
2021/03/26 12:18:28;;;;;;;50.43;37.43;;;18.00;83.50;;;;;;5055916;28;20532;-47
2021/03/26 12:21:08;;;;;;;49.83;35.63;;;18.00;82.90;;;;;;5055225;28;20889;-49
2021/03/26 12:23:40;;;;;;;51.83;38.87;;;18.20;82.20;;;;;;5054958;28;21035;-48
2021/03/26 12:26:18;;;;;;;48.13;35.60;;;17.80;81.40;;;;;;5054910;28;20465;-46
2021/03/26 12:29:11;;;;;;;45.97;33.37;;;17.60;81.10;;;;;;5054814;28;20475;-48
2021/03/26 12:31:45;;;;;;;45.60;34.47;;;17.50;81.30;;;;;;5055452;28;20455;-47
2021/03/26 12:34:22;;;;;;;54.50;35.10;;;17.50;81.80;;;;;;5037314;28;20455;-47
2021/03/26 12:36:55;;;;;;;54.00;36.77;;;17.40;82.10;;;;;;5055458;28;20448;-47
2021/03/26 12:39:29;;;;;;;52.20;34.70;;;17.40;82.40;;;;;;5055199;28;20944;-46
2021/03/26 12:42:06;;;;;;;49.93;36.90;;;17.30;83.00;;;;;;5055591;28;20438;-47
2021/03/26 12:44:37;;;;;;;47.07;34.30;;;17.30;82.10;;;;;;5055217;28;20444;-47
2021/03/26 12:47:28;;;;;;;57.57;39.00;;;16.80;81.60;;;;;;5054578;28;20502;-48
2021/03/26 12:50:09;;;;;;;58.10;38.63;;;17.20;82.40;;;;;;5054927;28;20497;-47
2021/03/26 12:52:55;;;;;;;51.63;36.70;;;17.40;84.20;;;;;;5054805;28;20424;-47
2021/03/26 12:55:32;;;;;;;56.73;38.10;;;16.90;84.50;;;;;;5053512;28;20467;-47
2021/03/26 12:58:10;;;;;;;59.23;37.20;;;16.80;85.50;;;;;;5055011;28;20473;-47
2021/03/26 13:00:42;;;;;;;56.73;37.60;;;16.70;86.40;;;;;;5054940;28;20523;-46
2021/03/26 13:03:23;;;;;;;51.60;37.20;;;16.90;86.00;;;;;;5055165;28;20925;-47
2021/03/26 13:06:02;;;;;;;54.07;37.97;;;16.90;85.30;;;;;;5055276;28;20429;-47
2021/03/26 13:08:33;;;;;;;49.37;37.20;;;17.20;85.50;;;;;;5036942;28;20446;-48
2021/03/26 13:11:10;;;;;;;50.60;37.00;;;16.80;84.80;;;;;;5054556;28;20490;-47
2021/03/26 13:13:41;;;;;;;48.80;37.43;;;17.10;84.50;;;;;;5054444;28;20430;-47
2021/03/26 13:16:21;;;;;;;56.40;42.00;;;16.80;84.00;;;;;;5053922;28;20534;-48
2021/03/26 13:18:54;;;;;;;50.90;38.93;;;16.80;86.40;;;;;;5035953;28;20470;-47
2021/03/26 13:21:40;;;;;;;65.63;40.40;;;16.80;90.10;;;;;;5035747;28;20471;-48
2021/03/26 13:24:29;;;;;;;58.83;39.10;;;16.30;92.40;;;;;;5036007;28;20770;-47
2021/03/26 13:27:29;;;;;;;55.77;40.00;;;16.50;92.60;;;;;;5054139;28;20486;-47
2021/03/26 13:30:04;;;;;;;56.70;40.80;;;16.70;92.90;;;;;;5054467;28;20454;-48
2021/03/26 13:32:40;;;;;;;57.37;39.13;;;16.60;93.00;;;;;;5053570;28;20430;-48
2021/03/26 13:35:12;;;;;;;51.67;39.43;;;16.50;93.50;;;;;;5054159;28;20487;-47